ADDS METAR Data INFO
IDs: Format: Raw Decoded Include TAF

Data at: 1921 UTC 19 Jul 2018

KBFF 191853Z AUTO 29006KT 10SM CLR 32/12 A3002 RMK AO2 SLP112 T03220117
KBFF 191753Z AUTO 31006KT 10SM CLR 29/19 A3003 RMK AO2 SLP119 T02940189 10294 20150 56006
KBFF 191653Z AUTO 34006KT 10SM CLR 27/18 A3003 RMK AO2 SLP122 T02720178
KBFF 191553Z AUTO 26007KT 10SM CLR 26/16 A3004 RMK AO2 SLP123 T02560161
KBFF 191453Z AUTO 28008KT 10SM CLR 22/16 A3005 RMK AO2 SLP128 T02220161 56001
KBFF 191353Z AUTO 33009KT 10SM CLR 19/16 A3005 RMK AO2 SLP127 T01890161
KBFF 191253Z AUTO 32005KT 10SM CLR 17/15 A3004 RMK AO2 SLP126 T01670150
KBFF 191153Z AUTO 30005KT 10SM CLR 15/14 A3005 RMK AO2 SLP127 T01500144 10189 20144 53003
KBFF 191053Z AUTO 31006KT 10SM CLR 15/15 A3004 RMK AO2 SLP122 T01500150
KBFF 190953Z AUTO 33005KT 10SM CLR 16/16 A3003 RMK AO2 SLP122 T01560156
KBFF 190853Z AUTO 30004KT 10SM CLR 16/16 A3004 RMK AO2 SLP124 T01560156 58001
KBFF 190753Z AUTO 29004KT 10SM CLR 17/16 A3005 RMK AO2 SLP127 T01670161
KBFF 190653Z AUTO 05005KT 10SM CLR 18/16 A3005 RMK AO2 SLP128 T01830161 403220150
KBFF 190553Z AUTO 04005KT 10SM CLR 18/17 A3005 RMK AO2 SLP129 T01830172 10322 20183 51013
KBFF 190453Z AUTO 00000KT 10SM CLR 21/17 A3003 RMK AO2 SLP124 T02060172
KBFF 190353Z AUTO 00000KT 10SM CLR 21/17 A3002 RMK AO2 SLP124 T02060172
KBFF 190253Z AUTO 02008KT 10SM CLR 23/18 A3000 RMK AO2 SLP117 T02280178 53006
KBFF 190153Z AUTO 01005KT 10SM CLR 27/19 A2999 RMK AO2 SLP108 T02720194
KBFF 190053Z AUTO 36003KT 10SM CLR 31/17 A2998 RMK AO2 SLP104 T03110167
KBFF 182353Z AUTO 32005KT 10SM CLR 32/16 A2998 RMK AO2 SLP104 T03220156 10322 20267 56012
KBFF 182322Z AUTO 30007KT 4SM HZ CLR 32/14 A2998 RMK AO2 T03220144
KBFF 182302Z AUTO 30004KT 2SM HZ CLR 32/14 A2999 RMK AO2 VIS 1 1/2V4 T03220139
KBFF 182253Z AUTO 30005KT 1 1/2SM HZ CLR 32/14 A2999 RMK AO2 SLP105 T03220139
KBFF 182243Z AUTO 29003KT 1 3/4SM HZ CLR 32/13 A2999 RMK AO2 VIS 1V5 T03220133
KBFF 182153Z AUTO 32010KT 10SM CLR 32/13 A3001 RMK AO2 SLP112 T03220133
KBFF 182053Z AUTO 28008KT 10SM CLR 32/14 A3002 RMK AO2 SLP116 T03170144 56016
KBFF 181953Z AUTO 28006KT 10SM CLR 29/17 A3004 RMK AO2 SLP124 T02940172
KBFF 181853Z AUTO 32006KT 10SM CLR 28/18 A3006 RMK AO2 SLP129 T02830178
KBFF 181753Z AUTO 00000KT 10SM CLR 27/19 A3007 RMK AO2 SLP134 T02720189 10272 20150 58010
KBFF 181653Z AUTO VRB03KT 10SM CLR 24/19 A3008 RMK AO2 SLP140 T02440194
KBFF 181553Z AUTO 00000KT 10SM CLR 23/19 A3010 RMK AO2 SLP148 T02280189
KBFF 181453Z AUTO 17003KT 10SM CLR 21/18 A3011 RMK AO2 SLP152 T02060183 50000
KBFF 181353Z AUTO 11003KT 10SM FEW012 18/17 A3011 RMK AO2 SLP153 T01830172
KBFF 181253Z AUTO VRB05KT 10SM CLR 17/17 A3012 RMK AO2 SLP156 T01670167 $
KBFF 181153Z AUTO 17003KT 10SM CLR 15/ A3011 RMK AO2 SLP155 60027 70027 T0150 10211 20150 56002 $
KBFF 181053Z AUTO 12008KT 10SM CLR 16/ A3011 RMK AO2 SLP155 T0156 $
KBFF 181029Z AUTO 12007KT 10SM SCT006 15/ A3011 RMK AO2 T0150 $
KBFF 181003Z AUTO 11007KT 10SM BKN005 16/ A3011 RMK AO2 T0156 $
KBFF 180953Z AUTO 11007KT 10SM BKN004 15/ A3010 RMK AO2 SLP152 T0150 $
KBFF 180853Z AUTO 12010KT 10SM SCT007 SCT016 BKN065 17/ A3011 RMK AO2 LTG DSNT NE-SE RAE15 TSE19 SLP152 P0021 60027 T0172 58008 $
KBFF 180839Z AUTO 12008KT 10SM VCTS FEW007 BKN038 OVC060 17/ A3012 RMK AO2 LTG DSNT NE-SE RAE15 TSE19 P0021 T0172 $
KBFF 180825Z AUTO 13011KT 10SM VCTS BKN036 OVC065 17/ A3012 RMK AO2 LTG DSNT NE-SE RAE15 TSE19 P0021 T0172 $
KBFF 180811Z AUTO 09012G25KT 10SM -TSRA FEW021 SCT026 OVC034 17/ A3012 RMK AO2 LTG DSNT NE-SE P0021 T0172 $
KBFF 180804Z AUTO 22016G25KT 2 1/2SM -TSRA BR FEW021 SCT026 OVC034 19/18 A3012 RMK AO2 LTG DSNT NE AND E P0021 T01890183 $
KBFF 180759Z AUTO 1 3/4SM +TSRA BR OVC027 21/18 A3010 RMK AO2 LTG DSNT N-E PRESFR P0018 T02060183 $
KBFF 180753Z AUTO 35026G37KT 6SM -TSRA BR OVC025 18/18 A3013 RMK AO2 PK WND 35037/0752 LTG DSNT NW-NE RAB50 TSB32 SLP158 P0001 T01780178
KBFF 180738Z AUTO 03008KT 10SM TS OVC028 18/18 A3012 RMK AO2 LTG DSNT NW-NE TSB32 T01830183
KBFF 180724Z AUTO 06009KT 10SM VCTS BKN028 OVC037 18/18 A3012 RMK AO2 LTG DSNT NW-E T01830183